sensor_id;sensor_type;location;lat;lon;timestamp;temperature;humidity
20376;DHT22;10347;51.828;6.466;2022-11-24T00:01:12;10.30;99.90
20376;DHT22;10347;51.828;6.466;2022-11-24T00:03:39;10.30;99.90
20376;DHT22;10347;51.828;6.466;2022-11-24T00:06:11;10.30;99.90
20376;DHT22;10347;51.828;6.466;2022-11-24T00:08:38;10.30;99.90
20376;DHT22;10347;51.828;6.466;2022-11-24T00:11:12;10.30;99.90
20376;DHT22;10347;51.828;6.466;2022-11-24T00:13:39;10.30;99.90
20376;DHT22;10347;51.828;6.466;2022-11-24T00:16:12;10.30;99.90
20376;DHT22;10347;51.828;6.466;2022-11-24T00:18:39;10.30;99.90
20376;DHT22;10347;51.828;6.466;2022-11-24T00:21:06;10.30;99.90
20376;DHT22;10347;51.828;6.466;2022-11-24T00:23:31;10.30;99.90
20376;DHT22;10347;51.828;6.466;2022-11-24T00:26:03;10.30;99.90
20376;DHT22;10347;51.828;6.466;2022-11-24T00:28:29;10.30;99.90
20376;DHT22;10347;51.828;6.466;2022-11-24T00:30:55;10.30;99.90
20376;DHT22;10347;51.828;6.466;2022-11-24T00:33:21;10.30;99.90
20376;DHT22;10347;51.828;6.466;2022-11-24T00:35:55;10.30;99.90
20376;DHT22;10347;51.828;6.466;2022-11-24T00:38:21;10.30;99.90
20376;DHT22;10347;51.828;6.466;2022-11-24T00:40:47;10.40;99.90
20376;DHT22;10347;51.828;6.466;2022-11-24T00:43:12;10.30;99.90
20376;DHT22;10347;51.828;6.466;2022-11-24T00:45:38;10.30;99.90
20376;DHT22;10347;51.828;6.466;2022-11-24T00:48:03;10.30;99.90
20376;DHT22;10347;51.828;6.466;2022-11-24T00:50:29;10.30;99.90
20376;DHT22;10347;51.828;6.466;2022-11-24T00:52:55;10.30;99.90
20376;DHT22;10347;51.828;6.466;2022-11-24T00:55:20;10.30;99.90
20376;DHT22;10347;51.828;6.466;2022-11-24T00:57:46;10.30;99.90
20376;DHT22;10347;51.828;6.466;2022-11-24T01:00:11;10.30;99.90
20376;DHT22;10347;51.828;6.466;2022-11-24T01:02:38;10.30;99.90
20376;DHT22;10347;51.828;6.466;2022-11-24T01:05:04;10.30;99.90
20376;DHT22;10347;51.828;6.466;2022-11-24T01:07:30;10.30;99.90
20376;DHT22;10347;51.828;6.466;2022-11-24T01:09:55;10.30;99.90
20376;DHT22;10347;51.828;6.466;2022-11-24T01:12:21;10.30;99.90
20376;DHT22;10347;51.828;6.466;2022-11-24T01:14:46;10.30;99.90
20376;DHT22;10347;51.828;6.466;2022-11-24T01:17:12;10.30;99.90
20376;DHT22;10347;51.828;6.466;2022-11-24T01:19:38;10.30;99.90
20376;DHT22;10347;51.828;6.466;2022-11-24T01:22:03;10.30;99.90
20376;DHT22;10347;51.828;6.466;2022-11-24T01:24:29;10.30;99.90
20376;DHT22;10347;51.828;6.466;2022-11-24T01:26:54;10.30;99.90
20376;DHT22;10347;51.828;6.466;2022-11-24T01:29:20;10.30;99.90
20376;DHT22;10347;51.828;6.466;2022-11-24T01:31:45;10.30;99.90
20376;DHT22;10347;51.828;6.466;2022-11-24T01:34:11;10.30;99.90
20376;DHT22;10347;51.828;6.466;2022-11-24T01:36:37;10.30;99.90
20376;DHT22;10347;51.828;6.466;2022-11-24T01:39:03;10.30;99.90
20376;DHT22;10347;51.828;6.466;2022-11-24T01:41:29;10.30;99.90
20376;DHT22;10347;51.828;6.466;2022-11-24T01:43:55;10.30;99.90
20376;DHT22;10347;51.828;6.466;2022-11-24T01:46:35;10.30;99.90
20376;DHT22;10347;51.828;6.466;2022-11-24T01:49:16;10.30;99.90
20376;DHT22;10347;51.828;6.466;2022-11-24T01:51:56;10.30;99.90
20376;DHT22;10347;51.828;6.466;2022-11-24T01:54:28;10.30;99.90
20376;DHT22;10347;51.828;6.466;2022-11-24T01:56:59;10.30;99.90
20376;DHT22;10347;51.828;6.466;2022-11-24T01:59:26;10.30;99.90
20376;DHT22;10347;51.828;6.466;2022-11-24T02:01:52;10.30;99.90
20376;DHT22;10347;51.828;6.466;2022-11-24T02:04:23;10.30;99.90
20376;DHT22;10347;51.828;6.466;2022-11-24T02:06:51;10.30;99.90
20376;DHT22;10347;51.828;6.466;2022-11-24T02:09:23;10.30;99.90
20376;DHT22;10347;51.828;6.466;2022-11-24T02:11:51;10.30;99.90
20376;DHT22;10347;51.828;6.466;2022-11-24T02:14:18;10.30;99.90
20376;DHT22;10347;51.828;6.466;2022-11-24T02:16:48;10.30;99.90
20376;DHT22;10347;51.828;6.466;2022-11-24T02:25:30;10.30;99.90
20376;DHT22;10347;51.828;6.466;2022-11-24T02:28:01;10.30;99.90
20376;DHT22;10347;51.828;6.466;2022-11-24T02:30:30;10.20;99.90
20376;DHT22;10347;51.828;6.466;2022-11-24T02:32:56;10.30;99.90
20376;DHT22;10347;51.828;6.466;2022-11-24T02:35:22;10.30;99.90
20376;DHT22;10347;51.828;6.466;2022-11-24T02:37:47;10.30;99.90
20376;DHT22;10347;51.828;6.466;2022-11-24T02:40:20;10.30;99.90
20376;DHT22;10347;51.828;6.466;2022-11-24T02:42:55;10.30;99.90
20376;DHT22;10347;51.828;6.466;2022-11-24T02:45:22;10.30;99.90
20376;DHT22;10347;51.828;6.466;2022-11-24T02:47:48;10.30;99.90
20376;DHT22;10347;51.828;6.466;2022-11-24T02:50:14;10.30;99.90
20376;DHT22;10347;51.828;6.466;2022-11-24T02:52:40;10.20;99.90
20376;DHT22;10347;51.828;6.466;2022-11-24T02:55:06;10.30;99.90
20376;DHT22;10347;51.828;6.466;2022-11-24T02:57:31;10.30;99.90
20376;DHT22;10347;51.828;6.466;2022-11-24T02:59:57;10.30;99.90
20376;DHT22;10347;51.828;6.466;2022-11-24T03:02:22;10.30;99.90
20376;DHT22;10347;51.828;6.466;2022-11-24T03:04:48;10.30;99.90
20376;DHT22;10347;51.828;6.466;2022-11-24T03:07:14;10.30;99.90
20376;DHT22;10347;51.828;6.466;2022-11-24T03:09:39;10.30;99.90
20376;DHT22;10347;51.828;6.466;2022-11-24T03:12:05;10.20;99.90
20376;DHT22;10347;51.828;6.466;2022-11-24T03:14:31;10.30;99.90
20376;DHT22;10347;51.828;6.466;2022-11-24T03:16:56;10.20;99.90
20376;DHT22;10347;51.828;6.466;2022-11-24T03:19:22;10.30;99.90
20376;DHT22;10347;51.828;6.466;2022-11-24T03:21:47;10.20;99.90
20376;DHT22;10347;51.828;6.466;2022-11-24T03:24:13;10.20;99.90
20376;DHT22;10347;51.828;6.466;2022-11-24T03:26:38;10.20;99.90
20376;DHT22;10347;51.828;6.466;2022-11-24T03:29:06;10.20;99.90
20376;DHT22;10347;51.828;6.466;2022-11-24T03:31:31;10.20;99.90
20376;DHT22;10347;51.828;6.466;2022-11-24T03:33:57;10.20;99.90
20376;DHT22;10347;51.828;6.466;2022-11-24T03:36:22;10.20;99.90
20376;DHT22;10347;51.828;6.466;2022-11-24T03:38:48;10.20;99.90
20376;DHT22;10347;51.828;6.466;2022-11-24T03:41:14;10.20;99.90
20376;DHT22;10347;51.828;6.466;2022-11-24T03:43:39;10.30;99.90
20376;DHT22;10347;51.828;6.466;2022-11-24T03:46:05;10.30;99.90
20376;DHT22;10347;51.828;6.466;2022-11-24T03:48:30;10.20;99.90
20376;DHT22;10347;51.828;6.466;2022-11-24T03:50:58;10.30;99.90
20376;DHT22;10347;51.828;6.466;2022-11-24T03:53:26;10.30;99.90
20376;DHT22;10347;51.828;6.466;2022-11-24T03:55:51;10.30;99.90
20376;DHT22;10347;51.828;6.466;2022-11-24T03:58:17;10.30;99.90
20376;DHT22;10347;51.828;6.466;2022-11-24T04:00:44;10.30;99.90
20376;DHT22;10347;51.828;6.466;2022-11-24T04:03:10;10.30;99.90
20376;DHT22;10347;51.828;6.466;2022-11-24T04:05:36;10.20;99.90
20376;DHT22;10347;51.828;6.466;2022-11-24T04:08:03;10.30;99.90
20376;DHT22;10347;51.828;6.466;2022-11-24T04:10:31;10.30;99.90
20376;DHT22;10347;51.828;6.466;2022-11-24T04:12:57;10.30;99.90
20376;DHT22;10347;51.828;6.466;2022-11-24T04:15:23;10.30;99.90
20376;DHT22;10347;51.828;6.466;2022-11-24T04:17:49;10.30;99.90
20376;DHT22;10347;51.828;6.466;2022-11-24T04:20:15;10.30;99.90
20376;DHT22;10347;51.828;6.466;2022-11-24T04:22:41;10.30;99.90
20376;DHT22;10347;51.828;6.466;2022-11-24T04:25:08;10.40;99.90
20376;DHT22;10347;51.828;6.466;2022-11-24T04:27:35;10.40;99.90
20376;DHT22;10347;51.828;6.466;2022-11-24T04:30:01;10.40;99.90
20376;DHT22;10347;51.828;6.466;2022-11-24T04:32:27;10.40;99.90
20376;DHT22;10347;51.828;6.466;2022-11-24T04:34:52;10.40;99.90
20376;DHT22;10347;51.828;6.466;2022-11-24T04:37:18;10.40;99.90
20376;DHT22;10347;51.828;6.466;2022-11-24T04:39:44;10.40;99.90
20376;DHT22;10347;51.828;6.466;2022-11-24T04:42:10;10.40;99.90
20376;DHT22;10347;51.828;6.466;2022-11-24T04:44:36;10.40;99.90
20376;DHT22;10347;51.828;6.466;2022-11-24T04:47:02;10.40;99.90
20376;DHT22;10347;51.828;6.466;2022-11-24T04:49:27;10.40;99.90
20376;DHT22;10347;51.828;6.466;2022-11-24T04:51:53;10.50;99.90
20376;DHT22;10347;51.828;6.466;2022-11-24T04:54:18;10.40;99.90
20376;DHT22;10347;51.828;6.466;2022-11-24T04:56:44;10.40;99.90
20376;DHT22;10347;51.828;6.466;2022-11-24T04:59:13;10.50;99.90
20376;DHT22;10347;51.828;6.466;2022-11-24T05:01:43;10.50;99.90
20376;DHT22;10347;51.828;6.466;2022-11-24T05:04:10;10.50;99.90
20376;DHT22;10347;51.828;6.466;2022-11-24T05:06:37;10.50;99.90
20376;DHT22;10347;51.828;6.466;2022-11-24T05:09:03;10.50;99.90
20376;DHT22;10347;51.828;6.466;2022-11-24T05:11:28;10.50;99.90
20376;DHT22;10347;51.828;6.466;2022-11-24T05:13:54;10.50;99.90
20376;DHT22;10347;51.828;6.466;2022-11-24T05:16:19;10.50;99.90
20376;DHT22;10347;51.828;6.466;2022-11-24T05:18:45;10.50;99.90
20376;DHT22;10347;51.828;6.466;2022-11-24T05:21:10;10.50;99.90
20376;DHT22;10347;51.828;6.466;2022-11-24T05:23:36;10.50;99.90
20376;DHT22;10347;51.828;6.466;2022-11-24T05:26:02;10.50;99.90
20376;DHT22;10347;51.828;6.466;2022-11-24T05:28:28;10.50;99.90
20376;DHT22;10347;51.828;6.466;2022-11-24T05:30:57;10.50;99.90
20376;DHT22;10347;51.828;6.466;2022-11-24T05:33:22;10.50;99.90
20376;DHT22;10347;51.828;6.466;2022-11-24T05:35:49;10.50;99.90
20376;DHT22;10347;51.828;6.466;2022-11-24T05:38:15;10.50;99.90
20376;DHT22;10347;51.828;6.466;2022-11-24T05:40:42;10.50;99.90
20376;DHT22;10347;51.828;6.466;2022-11-24T05:43:11;10.50;99.90
20376;DHT22;10347;51.828;6.466;2022-11-24T05:45:37;10.50;99.90
20376;DHT22;10347;51.828;6.466;2022-11-24T05:48:05;10.50;99.90
20376;DHT22;10347;51.828;6.466;2022-11-24T05:50:31;10.60;99.90
20376;DHT22;10347;51.828;6.466;2022-11-24T05:53:04;10.60;99.90
20376;DHT22;10347;51.828;6.466;2022-11-24T05:55:30;10.50;99.90
20376;DHT22;10347;51.828;6.466;2022-11-24T05:57:57;10.50;99.90
20376;DHT22;10347;51.828;6.466;2022-11-24T06:00:23;10.50;99.90
20376;DHT22;10347;51.828;6.466;2022-11-24T06:02:49;10.50;99.90
20376;DHT22;10347;51.828;6.466;2022-11-24T06:05:14;10.60;99.90
20376;DHT22;10347;51.828;6.466;2022-11-24T06:07:40;10.50;99.90
20376;DHT22;10347;51.828;6.466;2022-11-24T06:10:05;10.50;99.90
20376;DHT22;10347;51.828;6.466;2022-11-24T06:12:31;10.60;99.90
20376;DHT22;10347;51.828;6.466;2022-11-24T06:14:57;10.60;99.90
20376;DHT22;10347;51.828;6.466;2022-11-24T06:17:23;10.60;99.90
20376;DHT22;10347;51.828;6.466;2022-11-24T06:19:48;10.60;99.90
20376;DHT22;10347;51.828;6.466;2022-11-24T06:22:16;10.60;99.90
20376;DHT22;10347;51.828;6.466;2022-11-24T06:24:43;10.60;99.90
20376;DHT22;10347;51.828;6.466;2022-11-24T06:27:10;10.60;99.90
20376;DHT22;10347;51.828;6.466;2022-11-24T06:29:36;10.60;99.90
20376;DHT22;10347;51.828;6.466;2022-11-24T06:32:02;10.60;99.90
20376;DHT22;10347;51.828;6.466;2022-11-24T06:34:28;10.70;99.90
20376;DHT22;10347;51.828;6.466;2022-11-24T06:36:53;10.70;99.90
20376;DHT22;10347;51.828;6.466;2022-11-24T06:39:19;10.70;99.90
20376;DHT22;10347;51.828;6.466;2022-11-24T06:41:44;10.70;99.90
20376;DHT22;10347;51.828;6.466;2022-11-24T06:44:10;10.70;99.90
20376;DHT22;10347;51.828;6.466;2022-11-24T06:46:35;10.70;99.90
20376;DHT22;10347;51.828;6.466;2022-11-24T06:49:01;10.70;99.90
20376;DHT22;10347;51.828;6.466;2022-11-24T06:51:26;10.80;99.90
20376;DHT22;10347;51.828;6.466;2022-11-24T06:53:52;10.80;99.90
20376;DHT22;10347;51.828;6.466;2022-11-24T06:56:19;10.80;99.90
20376;DHT22;10347;51.828;6.466;2022-11-24T06:58:47;10.80;99.90
20376;DHT22;10347;51.828;6.466;2022-11-24T07:01:18;10.80;99.90
20376;DHT22;10347;51.828;6.466;2022-11-24T07:03:44;10.80;99.90
20376;DHT22;10347;51.828;6.466;2022-11-24T07:06:10;10.70;99.90
20376;DHT22;10347;51.828;6.466;2022-11-24T07:08:36;10.70;99.90
20376;DHT22;10347;51.828;6.466;2022-11-24T07:11:05;10.70;99.90
20376;DHT22;10347;51.828;6.466;2022-11-24T07:13:31;10.60;99.90
20376;DHT22;10347;51.828;6.466;2022-11-24T07:15:56;10.60;99.90
20376;DHT22;10347;51.828;6.466;2022-11-24T07:18:22;10.60;99.90
20376;DHT22;10347;51.828;6.466;2022-11-24T07:20:47;10.60;99.90
20376;DHT22;10347;51.828;6.466;2022-11-24T07:23:13;10.60;99.90
20376;DHT22;10347;51.828;6.466;2022-11-24T07:25:38;10.60;99.90
20376;DHT22;10347;51.828;6.466;2022-11-24T07:28:04;10.60;99.90
20376;DHT22;10347;51.828;6.466;2022-11-24T07:30:30;10.60;99.90
20376;DHT22;10347;51.828;6.466;2022-11-24T07:33:02;10.60;99.90
20376;DHT22;10347;51.828;6.466;2022-11-24T07:35:28;10.60;99.90
20376;DHT22;10347;51.828;6.466;2022-11-24T07:37:56;10.60;99.90
20376;DHT22;10347;51.828;6.466;2022-11-24T07:40:22;10.60;99.90
20376;DHT22;10347;51.828;6.466;2022-11-24T07:42:48;10.60;99.90
20376;DHT22;10347;51.828;6.466;2022-11-24T07:45:13;10.60;99.90
20376;DHT22;10347;51.828;6.466;2022-11-24T07:47:39;10.60;99.90
20376;DHT22;10347;51.828;6.466;2022-11-24T07:50:07;10.60;99.90
20376;DHT22;10347;51.828;6.466;2022-11-24T07:52:34;10.60;99.90
20376;DHT22;10347;51.828;6.466;2022-11-24T07:55:00;10.50;99.90
20376;DHT22;10347;51.828;6.466;2022-11-24T07:57:25;10.50;99.90
20376;DHT22;10347;51.828;6.466;2022-11-24T07:59:54;10.60;99.90
20376;DHT22;10347;51.828;6.466;2022-11-24T08:02:19;10.60;99.90
20376;DHT22;10347;51.828;6.466;2022-11-24T08:04:45;10.60;99.90
20376;DHT22;10347;51.828;6.466;2022-11-24T08:07:10;10.50;99.90
20376;DHT22;10347;51.828;6.466;2022-11-24T08:09:36;10.60;99.90
20376;DHT22;10347;51.828;6.466;2022-11-24T08:12:02;10.60;99.90
20376;DHT22;10347;51.828;6.466;2022-11-24T08:14:27;10.50;99.90
20376;DHT22;10347;51.828;6.466;2022-11-24T08:16:53;10.50;99.90
20376;DHT22;10347;51.828;6.466;2022-11-24T08:19:18;10.60;99.90
20376;DHT22;10347;51.828;6.466;2022-11-24T08:21:45;10.60;99.90
20376;DHT22;10347;51.828;6.466;2022-11-24T08:24:11;10.60;99.90
20376;DHT22;10347;51.828;6.466;2022-11-24T08:26:39;10.60;99.90
20376;DHT22;10347;51.828;6.466;2022-11-24T08:29:05;10.60;99.90
20376;DHT22;10347;51.828;6.466;2022-11-24T08:31:30;10.60;99.90
20376;DHT22;10347;51.828;6.466;2022-11-24T08:34:02;10.60;99.90
20376;DHT22;10347;51.828;6.466;2022-11-24T08:36:27;10.60;99.90
20376;DHT22;10347;51.828;6.466;2022-11-24T08:38:57;10.60;99.90
20376;DHT22;10347;51.828;6.466;2022-11-24T08:41:24;10.60;99.90
20376;DHT22;10347;51.828;6.466;2022-11-24T08:43:50;10.60;99.90
20376;DHT22;10347;51.828;6.466;2022-11-24T08:46:17;10.60;99.90
20376;DHT22;10347;51.828;6.466;2022-11-24T08:48:53;10.60;99.90
20376;DHT22;10347;51.828;6.466;2022-11-24T08:51:21;10.70;99.90
20376;DHT22;10347;51.828;6.466;2022-11-24T08:53:47;10.60;99.90
20376;DHT22;10347;51.828;6.466;2022-11-24T08:56:13;10.60;99.90
20376;DHT22;10347;51.828;6.466;2022-11-24T08:58:39;10.60;99.90
20376;DHT22;10347;51.828;6.466;2022-11-24T09:01:12;10.60;99.90
20376;DHT22;10347;51.828;6.466;2022-11-24T09:03:38;10.70;99.90
20376;DHT22;10347;51.828;6.466;2022-11-24T09:06:05;10.70;99.90
20376;DHT22;10347;51.828;6.466;2022-11-24T09:08:32;10.70;99.90
20376;DHT22;10347;51.828;6.466;2022-11-24T09:11:06;10.80;99.90
20376;DHT22;10347;51.828;6.466;2022-11-24T09:13:32;10.80;99.90
20376;DHT22;10347;51.828;6.466;2022-11-24T09:16:02;10.80;99.90
20376;DHT22;10347;51.828;6.466;2022-11-24T09:18:28;10.80;99.90
20376;DHT22;10347;51.828;6.466;2022-11-24T09:20:53;10.80;99.90
20376;DHT22;10347;51.828;6.466;2022-11-24T09:23:22;10.80;99.90
20376;DHT22;10347;51.828;6.466;2022-11-24T09:25:48;10.80;99.90
20376;DHT22;10347;51.828;6.466;2022-11-24T09:28:13;10.90;99.90
20376;DHT22;10347;51.828;6.466;2022-11-24T09:30:39;10.90;99.90
20376;DHT22;10347;51.828;6.466;2022-11-24T09:33:04;10.90;99.90
20376;DHT22;10347;51.828;6.466;2022-11-24T09:35:30;10.90;99.90
20376;DHT22;10347;51.828;6.466;2022-11-24T09:37:56;10.90;99.90
20376;DHT22;10347;51.828;6.466;2022-11-24T09:40:21;10.90;99.90
20376;DHT22;10347;51.828;6.466;2022-11-24T09:42:51;10.90;99.90
20376;DHT22;10347;51.828;6.466;2022-11-24T09:45:25;10.90;99.90
20376;DHT22;10347;51.828;6.466;2022-11-24T09:48:07;10.90;99.90
20376;DHT22;10347;51.828;6.466;2022-11-24T09:50:36;11.00;99.90
20376;DHT22;10347;51.828;6.466;2022-11-24T09:55:38;11.00;99.90
20376;DHT22;10347;51.828;6.466;2022-11-24T10:00:39;10.90;99.90
20376;DHT22;10347;51.828;6.466;2022-11-24T10:03:07;10.90;99.90
20376;DHT22;10347;51.828;6.466;2022-11-24T10:05:35;11.00;99.90
20376;DHT22;10347;51.828;6.466;2022-11-24T10:10:59;11.00;99.90
20376;DHT22;10347;51.828;6.466;2022-11-24T10:19:26;11.10;99.90
20376;DHT22;10347;51.828;6.466;2022-11-24T10:25:12;11.10;99.90
20376;DHT22;10347;51.828;6.466;2022-11-24T10:28:00;11.10;99.90
20376;DHT22;10347;51.828;6.466;2022-11-24T10:30:27;11.10;99.90
20376;DHT22;10347;51.828;6.466;2022-11-24T10:32:59;11.10;99.90
20376;DHT22;10347;51.828;6.466;2022-11-24T10:35:45;11.10;99.90
20376;DHT22;10347;51.828;6.466;2022-11-24T10:40:47;11.20;99.90
20376;DHT22;10347;51.828;6.466;2022-11-24T10:43:15;11.20;99.90
20376;DHT22;10347;51.828;6.466;2022-11-24T10:45:41;11.30;99.90
20376;DHT22;10347;51.828;6.466;2022-11-24T10:48:12;11.30;99.90
20376;DHT22;10347;51.828;6.466;2022-11-24T10:50:41;11.30;99.90
20376;DHT22;10347;51.828;6.466;2022-11-24T10:58:42;11.40;99.90
20376;DHT22;10347;51.828;6.466;2022-11-24T11:03:50;11.50;99.90
20376;DHT22;10347;51.828;6.466;2022-11-24T11:06:26;11.60;99.90
20376;DHT22;10347;51.828;6.466;2022-11-24T11:11:39;11.60;99.90
20376;DHT22;10347;51.828;6.466;2022-11-24T11:14:06;11.70;99.90
20376;DHT22;10347;51.828;6.466;2022-11-24T11:16:52;11.80;99.90
20376;DHT22;10347;51.828;6.466;2022-11-24T11:19:34;11.80;99.90
20376;DHT22;10347;51.828;6.466;2022-11-24T11:22:32;11.90;99.90
20376;DHT22;10347;51.828;6.466;2022-11-24T11:27:33;11.90;99.90
20376;DHT22;10347;51.828;6.466;2022-11-24T11:32:59;12.00;99.90
20376;DHT22;10347;51.828;6.466;2022-11-24T11:35:26;12.00;99.90
20376;DHT22;10347;51.828;6.466;2022-11-24T11:37:56;12.10;99.90
20376;DHT22;10347;51.828;6.466;2022-11-24T11:40:27;12.10;99.90
20376;DHT22;10347;51.828;6.466;2022-11-24T11:45:27;12.10;99.90
20376;DHT22;10347;51.828;6.466;2022-11-24T11:51:38;12.10;99.90
20376;DHT22;10347;51.828;6.466;2022-11-24T11:53:42;12.10;99.90
20376;DHT22;10347;51.828;6.466;2022-11-24T11:56:23;12.10;99.90
20376;DHT22;10347;51.828;6.466;2022-11-24T12:04:52;12.20;99.90
20376;DHT22;10347;51.828;6.466;2022-11-24T12:15:50;12.30;99.90
20376;DHT22;10347;51.828;6.466;2022-11-24T12:21:16;12.30;99.90
20376;DHT22;10347;51.828;6.466;2022-11-24T12:29:22;12.40;99.90
20376;DHT22;10347;51.828;6.466;2022-11-24T12:37:30;12.40;99.90
20376;DHT22;10347;51.828;6.466;2022-11-24T12:46:00;12.40;99.90
20376;DHT22;10347;51.828;6.466;2022-11-24T12:51:19;12.50;99.90
20376;DHT22;10347;51.828;6.466;2022-11-24T12:53:46;12.50;99.90
20376;DHT22;10347;51.828;6.466;2022-11-24T12:56:15;12.50;99.90
20376;DHT22;10347;51.828;6.466;2022-11-24T13:01:37;12.50;99.90
20376;DHT22;10347;51.828;6.466;2022-11-24T13:04:17;12.50;99.90
20376;DHT22;10347;51.828;6.466;2022-11-24T13:06:50;12.60;99.90
20376;DHT22;10347;51.828;6.466;2022-11-24T13:09:17;12.50;99.90
20376;DHT22;10347;51.828;6.466;2022-11-24T13:11:47;12.60;99.90
20376;DHT22;10347;51.828;6.466;2022-11-24T13:14:29;12.60;99.90
20376;DHT22;10347;51.828;6.466;2022-11-24T13:16:58;12.60;99.90
20376;DHT22;10347;51.828;6.466;2022-11-24T13:19:29;12.60;99.90
20376;DHT22;10347;51.828;6.466;2022-11-24T13:24:33;12.60;99.90
20376;DHT22;10347;51.828;6.466;2022-11-24T13:29:45;12.60;99.90
20376;DHT22;10347;51.828;6.466;2022-11-24T13:42:16;12.70;99.90
20376;DHT22;10347;51.828;6.466;2022-11-24T13:47:27;12.70;99.90
20376;DHT22;10347;51.828;6.466;2022-11-24T13:49:53;12.70;99.90
20376;DHT22;10347;51.828;6.466;2022-11-24T13:55:28;12.70;99.90
20376;DHT22;10347;51.828;6.466;2022-11-24T14:01:23;12.70;99.90
20376;DHT22;10347;51.828;6.466;2022-11-24T14:07:14;12.70;99.90
20376;DHT22;10347;51.828;6.466;2022-11-24T14:09:27;12.70;99.90
20376;DHT22;10347;51.828;6.466;2022-11-24T14:12:07;12.70;99.90
20376;DHT22;10347;51.828;6.466;2022-11-24T14:14:36;12.70;99.90
20376;DHT22;10347;51.828;6.466;2022-11-24T14:17:21;12.80;99.90
20376;DHT22;10347;51.828;6.466;2022-11-24T14:19:49;12.80;99.90
20376;DHT22;10347;51.828;6.466;2022-11-24T14:22:24;12.80;99.90
20376;DHT22;10347;51.828;6.466;2022-11-24T14:24:58;12.80;99.90
20376;DHT22;10347;51.828;6.466;2022-11-24T14:27:36;12.80;99.90
20376;DHT22;10347;51.828;6.466;2022-11-24T14:30:04;12.70;99.90
20376;DHT22;10347;51.828;6.466;2022-11-24T14:32:58;12.70;99.90
20376;DHT22;10347;51.828;6.466;2022-11-24T14:35:30;12.70;99.90
20376;DHT22;10347;51.828;6.466;2022-11-24T14:37:56;12.70;99.90
20376;DHT22;10347;51.828;6.466;2022-11-24T14:40:53;12.70;99.90
20376;DHT22;10347;51.828;6.466;2022-11-24T14:43:28;12.70;99.90
20376;DHT22;10347;51.828;6.466;2022-11-24T14:46:09;12.70;99.90
20376;DHT22;10347;51.828;6.466;2022-11-24T14:53:50;12.70;99.90
20376;DHT22;10347;51.828;6.466;2022-11-24T14:56:37;12.70;99.90
20376;DHT22;10347;51.828;6.466;2022-11-24T14:59:16;12.70;99.90
20376;DHT22;10347;51.828;6.466;2022-11-24T15:01:44;12.60;99.90
20376;DHT22;10347;51.828;6.466;2022-11-24T15:04:21;12.60;99.90
20376;DHT22;10347;51.828;6.466;2022-11-24T15:09:49;12.60;99.90
20376;DHT22;10347;51.828;6.466;2022-11-24T15:12:26;12.60;99.90
20376;DHT22;10347;51.828;6.466;2022-11-24T15:14:55;12.60;99.90
20376;DHT22;10347;51.828;6.466;2022-11-24T15:17:27;12.60;99.90
20376;DHT22;10347;51.828;6.466;2022-11-24T15:20:02;12.60;99.90
20376;DHT22;10347;51.828;6.466;2022-11-24T15:25:00;12.50;99.90
20376;DHT22;10347;51.828;6.466;2022-11-24T15:27:26;12.60;99.90
20376;DHT22;10347;51.828;6.466;2022-11-24T15:29:51;12.50;99.90
20376;DHT22;10347;51.828;6.466;2022-11-24T15:32:17;12.50;99.90
20376;DHT22;10347;51.828;6.466;2022-11-24T15:34:43;12.50;99.90
20376;DHT22;10347;51.828;6.466;2022-11-24T15:37:08;12.50;99.90
20376;DHT22;10347;51.828;6.466;2022-11-24T15:39:34;12.40;99.90
20376;DHT22;10347;51.828;6.466;2022-11-24T15:42:00;12.40;99.90
20376;DHT22;10347;51.828;6.466;2022-11-24T15:44:25;12.40;99.90
20376;DHT22;10347;51.828;6.466;2022-11-24T15:46:51;12.40;99.90
20376;DHT22;10347;51.828;6.466;2022-11-24T15:49:16;12.40;99.90
20376;DHT22;10347;51.828;6.466;2022-11-24T15:51:44;12.30;99.90
20376;DHT22;10347;51.828;6.466;2022-11-24T15:54:15;12.30;99.90
20376;DHT22;10347;51.828;6.466;2022-11-24T15:56:41;12.30;99.90
20376;DHT22;10347;51.828;6.466;2022-11-24T15:59:15;12.20;99.90
20376;DHT22;10347;51.828;6.466;2022-11-24T16:01:41;12.20;99.90
20376;DHT22;10347;51.828;6.466;2022-11-24T16:04:07;12.10;99.90
20376;DHT22;10347;51.828;6.466;2022-11-24T16:06:33;12.10;99.90
20376;DHT22;10347;51.828;6.466;2022-11-24T16:08:59;12.10;99.90
20376;DHT22;10347;51.828;6.466;2022-11-24T16:11:25;12.10;99.90
20376;DHT22;10347;51.828;6.466;2022-11-24T16:13:51;12.10;99.90
20376;DHT22;10347;51.828;6.466;2022-11-24T16:16:16;12.00;99.90
20376;DHT22;10347;51.828;6.466;2022-11-24T16:18:42;12.00;99.90
20376;DHT22;10347;51.828;6.466;2022-11-24T16:21:09;12.00;99.90
20376;DHT22;10347;51.828;6.466;2022-11-24T16:23:35;12.00;99.90
20376;DHT22;10347;51.828;6.466;2022-11-24T16:26:04;12.00;99.90
20376;DHT22;10347;51.828;6.466;2022-11-24T16:28:30;11.90;99.90
20376;DHT22;10347;51.828;6.466;2022-11-24T16:30:56;12.00;99.90
20376;DHT22;10347;51.828;6.466;2022-11-24T16:33:22;11.90;99.90
20376;DHT22;10347;51.828;6.466;2022-11-24T16:35:48;11.90;99.90
20376;DHT22;10347;51.828;6.466;2022-11-24T16:38:17;11.90;99.90
20376;DHT22;10347;51.828;6.466;2022-11-24T16:40:43;11.90;99.90
20376;DHT22;10347;51.828;6.466;2022-11-24T16:43:09;11.90;99.90
20376;DHT22;10347;51.828;6.466;2022-11-24T16:45:35;11.80;99.90
20376;DHT22;10347;51.828;6.466;2022-11-24T16:48:01;11.80;99.90
20376;DHT22;10347;51.828;6.466;2022-11-24T16:50:26;11.80;99.90
20376;DHT22;10347;51.828;6.466;2022-11-24T16:52:52;11.80;99.90
20376;DHT22;10347;51.828;6.466;2022-11-24T16:55:17;11.80;99.90
20376;DHT22;10347;51.828;6.466;2022-11-24T16:57:43;11.70;99.90
20376;DHT22;10347;51.828;6.466;2022-11-24T17:00:09;11.70;99.90
20376;DHT22;10347;51.828;6.466;2022-11-24T17:02:35;11.70;99.90
20376;DHT22;10347;51.828;6.466;2022-11-24T17:05:01;11.70;99.90
20376;DHT22;10347;51.828;6.466;2022-11-24T17:07:27;11.70;99.90
20376;DHT22;10347;51.828;6.466;2022-11-24T17:09:52;11.60;99.90
20376;DHT22;10347;51.828;6.466;2022-11-24T17:12:18;11.60;99.90
20376;DHT22;10347;51.828;6.466;2022-11-24T17:14:43;11.70;99.90
20376;DHT22;10347;51.828;6.466;2022-11-24T17:17:09;11.70;99.90
20376;DHT22;10347;51.828;6.466;2022-11-24T17:19:34;11.70;99.90
20376;DHT22;10347;51.828;6.466;2022-11-24T17:22:00;11.60;99.90
20376;DHT22;10347;51.828;6.466;2022-11-24T17:24:26;11.60;99.90
20376;DHT22;10347;51.828;6.466;2022-11-24T17:26:51;11.60;99.90
20376;DHT22;10347;51.828;6.466;2022-11-24T17:29:17;11.60;99.90
20376;DHT22;10347;51.828;6.466;2022-11-24T17:31:43;11.60;99.90
20376;DHT22;10347;51.828;6.466;2022-11-24T17:34:10;11.50;99.90
20376;DHT22;10347;51.828;6.466;2022-11-24T17:36:36;11.50;99.90
20376;DHT22;10347;51.828;6.466;2022-11-24T17:39:04;11.50;99.90
20376;DHT22;10347;51.828;6.466;2022-11-24T17:41:31;11.50;99.90